sensor_id;sensor_type;location;lat;lon;timestamp;temperature;humidity
29353;DHT22;16344;50.364;8.944;2023-12-14T00:01:42;7.70;1.00
29353;DHT22;16344;50.364;8.944;2023-12-14T00:04:07;7.80;1.00
29353;DHT22;16344;50.364;8.944;2023-12-14T00:06:33;7.70;1.00
29353;DHT22;16344;50.364;8.944;2023-12-14T00:08:58;7.80;1.00
29353;DHT22;16344;50.364;8.944;2023-12-14T00:11:24;7.80;1.00
29353;DHT22;16344;50.364;8.944;2023-12-14T00:13:49;7.70;1.00
29353;DHT22;16344;50.364;8.944;2023-12-14T00:16:15;7.60;1.00
29353;DHT22;16344;50.364;8.944;2023-12-14T00:18:40;7.50;1.00
29353;DHT22;16344;50.364;8.944;2023-12-14T00:21:05;7.40;1.00
29353;DHT22;16344;50.364;8.944;2023-12-14T00:23:31;7.40;1.00
29353;DHT22;16344;50.364;8.944;2023-12-14T00:25:58;7.40;1.00
29353;DHT22;16344;50.364;8.944;2023-12-14T00:28:24;7.30;1.00
29353;DHT22;16344;50.364;8.944;2023-12-14T00:30:49;7.40;1.00
29353;DHT22;16344;50.364;8.944;2023-12-14T00:33:15;7.40;1.00
29353;DHT22;16344;50.364;8.944;2023-12-14T00:35:40;7.40;1.00
29353;DHT22;16344;50.364;8.944;2023-12-14T00:38:05;7.50;1.00
29353;DHT22;16344;50.364;8.944;2023-12-14T00:40:31;7.40;1.00
29353;DHT22;16344;50.364;8.944;2023-12-14T00:42:56;7.30;1.00
29353;DHT22;16344;50.364;8.944;2023-12-14T00:45:22;7.40;1.00
29353;DHT22;16344;50.364;8.944;2023-12-14T00:47:47;7.40;1.00
29353;DHT22;16344;50.364;8.944;2023-12-14T00:50:13;7.40;1.00
29353;DHT22;16344;50.364;8.944;2023-12-14T00:52:38;7.40;1.00
29353;DHT22;16344;50.364;8.944;2023-12-14T00:55:04;7.50;1.00
29353;DHT22;16344;50.364;8.944;2023-12-14T00:57:29;7.60;1.00
29353;DHT22;16344;50.364;8.944;2023-12-14T00:59:55;7.60;1.00
29353;DHT22;16344;50.364;8.944;2023-12-14T01:02:20;7.60;1.00
29353;DHT22;16344;50.364;8.944;2023-12-14T01:04:45;7.60;1.00
29353;DHT22;16344;50.364;8.944;2023-12-14T01:07:11;7.70;1.00
29353;DHT22;16344;50.364;8.944;2023-12-14T01:09:36;7.70;1.00
29353;DHT22;16344;50.364;8.944;2023-12-14T01:12:02;7.70;1.00
29353;DHT22;16344;50.364;8.944;2023-12-14T01:14:27;7.70;1.00
29353;DHT22;16344;50.364;8.944;2023-12-14T01:16:53;7.80;1.00
29353;DHT22;16344;50.364;8.944;2023-12-14T01:19:18;7.80;1.00
29353;DHT22;16344;50.364;8.944;2023-12-14T01:21:44;7.70;1.00
29353;DHT22;16344;50.364;8.944;2023-12-14T01:24:09;7.80;1.00
29353;DHT22;16344;50.364;8.944;2023-12-14T01:26:34;7.90;1.00
29353;DHT22;16344;50.364;8.944;2023-12-14T01:29:00;7.80;1.00
29353;DHT22;16344;50.364;8.944;2023-12-14T01:31:25;7.90;1.00
29353;DHT22;16344;50.364;8.944;2023-12-14T01:33:51;7.80;1.00
29353;DHT22;16344;50.364;8.944;2023-12-14T01:36:20;7.80;1.00
29353;DHT22;16344;50.364;8.944;2023-12-14T01:38:46;7.80;1.00
29353;DHT22;16344;50.364;8.944;2023-12-14T01:41:12;7.80;1.00
29353;DHT22;16344;50.364;8.944;2023-12-14T01:43:37;7.80;1.00
29353;DHT22;16344;50.364;8.944;2023-12-14T01:46:03;7.70;1.00
29353;DHT22;16344;50.364;8.944;2023-12-14T01:48:28;7.70;1.00
29353;DHT22;16344;50.364;8.944;2023-12-14T01:50:53;7.60;1.00
29353;DHT22;16344;50.364;8.944;2023-12-14T01:53:19;7.60;1.00
29353;DHT22;16344;50.364;8.944;2023-12-14T01:55:45;7.60;1.00
29353;DHT22;16344;50.364;8.944;2023-12-14T01:58:10;7.50;1.00
29353;DHT22;16344;50.364;8.944;2023-12-14T02:00:46;7.50;1.00
29353;DHT22;16344;50.364;8.944;2023-12-14T02:03:15;7.50;1.00
29353;DHT22;16344;50.364;8.944;2023-12-14T02:05:41;7.40;1.00
29353;DHT22;16344;50.364;8.944;2023-12-14T02:08:06;7.40;1.00
29353;DHT22;16344;50.364;8.944;2023-12-14T02:10:32;7.40;1.00
29353;DHT22;16344;50.364;8.944;2023-12-14T02:12:58;7.40;1.00
29353;DHT22;16344;50.364;8.944;2023-12-14T02:15:23;7.40;1.00
29353;DHT22;16344;50.364;8.944;2023-12-14T02:17:48;7.40;1.00
29353;DHT22;16344;50.364;8.944;2023-12-14T02:20:14;7.40;1.00
29353;DHT22;16344;50.364;8.944;2023-12-14T02:22:49;7.40;1.00
29353;DHT22;16344;50.364;8.944;2023-12-14T02:25:16;7.40;1.00
29353;DHT22;16344;50.364;8.944;2023-12-14T02:27:41;7.40;1.00
29353;DHT22;16344;50.364;8.944;2023-12-14T02:30:07;7.40;1.00
29353;DHT22;16344;50.364;8.944;2023-12-14T02:32:32;7.40;1.00
29353;DHT22;16344;50.364;8.944;2023-12-14T02:34:58;7.40;1.00
29353;DHT22;16344;50.364;8.944;2023-12-14T02:37:23;7.50;1.00
29353;DHT22;16344;50.364;8.944;2023-12-14T02:39:48;7.50;1.00
29353;DHT22;16344;50.364;8.944;2023-12-14T02:42:14;7.50;1.00
29353;DHT22;16344;50.364;8.944;2023-12-14T02:44:39;7.40;1.00
29353;DHT22;16344;50.364;8.944;2023-12-14T02:47:05;7.50;1.00
29353;DHT22;16344;50.364;8.944;2023-12-14T02:49:30;7.40;1.00
29353;DHT22;16344;50.364;8.944;2023-12-14T02:51:56;7.40;1.00
29353;DHT22;16344;50.364;8.944;2023-12-14T02:54:21;7.40;1.00
29353;DHT22;16344;50.364;8.944;2023-12-14T02:56:47;7.40;1.00
29353;DHT22;16344;50.364;8.944;2023-12-14T02:59:12;7.40;1.00
29353;DHT22;16344;50.364;8.944;2023-12-14T03:01:37;7.50;1.00
29353;DHT22;16344;50.364;8.944;2023-12-14T03:04:04;7.50;1.00
29353;DHT22;16344;50.364;8.944;2023-12-14T03:06:29;7.60;1.00
29353;DHT22;16344;50.364;8.944;2023-12-14T03:08:55;7.60;1.00
29353;DHT22;16344;50.364;8.944;2023-12-14T03:11:21;7.60;1.00
29353;DHT22;16344;50.364;8.944;2023-12-14T03:13:47;7.60;1.00
29353;DHT22;16344;50.364;8.944;2023-12-14T03:16:13;7.60;1.00
29353;DHT22;16344;50.364;8.944;2023-12-14T03:18:38;7.60;1.00
29353;DHT22;16344;50.364;8.944;2023-12-14T03:21:04;7.60;1.00
29353;DHT22;16344;50.364;8.944;2023-12-14T03:23:29;7.60;1.00
29353;DHT22;16344;50.364;8.944;2023-12-14T03:25:54;7.60;1.00
29353;DHT22;16344;50.364;8.944;2023-12-14T03:28:20;7.60;1.00
29353;DHT22;16344;50.364;8.944;2023-12-14T03:30:45;7.50;1.00
29353;DHT22;16344;50.364;8.944;2023-12-14T03:33:11;7.40;1.00
29353;DHT22;16344;50.364;8.944;2023-12-14T03:35:36;7.40;1.00
29353;DHT22;16344;50.364;8.944;2023-12-14T03:38:02;7.40;1.00
29353;DHT22;16344;50.364;8.944;2023-12-14T03:40:27;7.40;1.00
29353;DHT22;16344;50.364;8.944;2023-12-14T03:42:52;7.40;1.00
29353;DHT22;16344;50.364;8.944;2023-12-14T03:45:18;7.40;1.00
29353;DHT22;16344;50.364;8.944;2023-12-14T03:47:43;7.40;1.00
29353;DHT22;16344;50.364;8.944;2023-12-14T03:50:10;7.40;1.00
29353;DHT22;16344;50.364;8.944;2023-12-14T03:52:36;7.50;1.00
29353;DHT22;16344;50.364;8.944;2023-12-14T03:55:01;7.50;1.00
29353;DHT22;16344;50.364;8.944;2023-12-14T03:57:27;7.50;1.00
29353;DHT22;16344;50.364;8.944;2023-12-14T03:59:52;7.50;1.00
29353;DHT22;16344;50.364;8.944;2023-12-14T04:02:18;7.40;1.00
29353;DHT22;16344;50.364;8.944;2023-12-14T04:04:43;7.40;1.00
29353;DHT22;16344;50.364;8.944;2023-12-14T04:07:10;7.40;1.00
29353;DHT22;16344;50.364;8.944;2023-12-14T04:09:35;7.30;1.00
29353;DHT22;16344;50.364;8.944;2023-12-14T04:12:01;7.30;1.00
29353;DHT22;16344;50.364;8.944;2023-12-14T04:14:26;7.40;1.00
29353;DHT22;16344;50.364;8.944;2023-12-14T04:16:52;7.40;1.00
29353;DHT22;16344;50.364;8.944;2023-12-14T04:19:17;7.40;1.00
29353;DHT22;16344;50.364;8.944;2023-12-14T04:21:43;7.30;1.00
29353;DHT22;16344;50.364;8.944;2023-12-14T04:24:08;7.40;1.00
29353;DHT22;16344;50.364;8.944;2023-12-14T04:26:34;7.40;1.00
29353;DHT22;16344;50.364;8.944;2023-12-14T04:29:00;7.40;1.00
29353;DHT22;16344;50.364;8.944;2023-12-14T04:31:25;7.30;1.00
29353;DHT22;16344;50.364;8.944;2023-12-14T04:33:51;7.30;1.00
29353;DHT22;16344;50.364;8.944;2023-12-14T04:36:16;7.30;1.00
29353;DHT22;16344;50.364;8.944;2023-12-14T04:38:41;7.40;1.00
29353;DHT22;16344;50.364;8.944;2023-12-14T04:41:08;7.40;1.00
29353;DHT22;16344;50.364;8.944;2023-12-14T04:43:33;7.40;1.00
29353;DHT22;16344;50.364;8.944;2023-12-14T04:45:59;7.40;1.00
29353;DHT22;16344;50.364;8.944;2023-12-14T04:48:24;7.40;1.00
29353;DHT22;16344;50.364;8.944;2023-12-14T04:50:49;7.40;1.00
29353;DHT22;16344;50.364;8.944;2023-12-14T04:53:15;7.40;1.00
29353;DHT22;16344;50.364;8.944;2023-12-14T04:55:40;7.40;1.00
29353;DHT22;16344;50.364;8.944;2023-12-14T04:58:06;7.40;1.00
29353;DHT22;16344;50.364;8.944;2023-12-14T05:00:31;7.40;1.00
29353;DHT22;16344;50.364;8.944;2023-12-14T05:02:57;7.50;1.00
29353;DHT22;16344;50.364;8.944;2023-12-14T05:05:22;7.50;1.00
29353;DHT22;16344;50.364;8.944;2023-12-14T05:07:48;7.40;1.00
29353;DHT22;16344;50.364;8.944;2023-12-14T05:10:13;7.30;1.00
29353;DHT22;16344;50.364;8.944;2023-12-14T05:12:39;7.20;1.00
29353;DHT22;16344;50.364;8.944;2023-12-14T05:15:05;7.30;1.00
29353;DHT22;16344;50.364;8.944;2023-12-14T05:17:31;7.30;1.00
29353;DHT22;16344;50.364;8.944;2023-12-14T05:19:56;7.30;1.00
29353;DHT22;16344;50.364;8.944;2023-12-14T05:22:22;7.20;1.00
29353;DHT22;16344;50.364;8.944;2023-12-14T05:24:47;7.30;1.00
29353;DHT22;16344;50.364;8.944;2023-12-14T05:27:13;7.30;1.00
29353;DHT22;16344;50.364;8.944;2023-12-14T05:29:39;7.30;1.00
29353;DHT22;16344;50.364;8.944;2023-12-14T05:32:04;7.40;1.00
29353;DHT22;16344;50.364;8.944;2023-12-14T05:34:30;7.30;1.00
29353;DHT22;16344;50.364;8.944;2023-12-14T05:36:55;7.20;1.00
29353;DHT22;16344;50.364;8.944;2023-12-14T05:39:21;7.20;1.00
29353;DHT22;16344;50.364;8.944;2023-12-14T05:41:46;7.30;1.00
29353;DHT22;16344;50.364;8.944;2023-12-14T05:44:12;7.30;1.00
29353;DHT22;16344;50.364;8.944;2023-12-14T05:46:38;7.30;1.00
29353;DHT22;16344;50.364;8.944;2023-12-14T05:49:03;7.30;1.00
29353;DHT22;16344;50.364;8.944;2023-12-14T05:51:29;7.20;1.00
29353;DHT22;16344;50.364;8.944;2023-12-14T05:53:55;7.30;1.00
29353;DHT22;16344;50.364;8.944;2023-12-14T05:56:21;7.30;1.00
29353;DHT22;16344;50.364;8.944;2023-12-14T05:58:48;7.30;1.00
29353;DHT22;16344;50.364;8.944;2023-12-14T06:01:16;7.30;1.00
29353;DHT22;16344;50.364;8.944;2023-12-14T06:03:41;7.30;1.00
29353;DHT22;16344;50.364;8.944;2023-12-14T06:06:07;7.20;1.00
29353;DHT22;16344;50.364;8.944;2023-12-14T06:08:32;7.10;1.00
29353;DHT22;16344;50.364;8.944;2023-12-14T06:10:57;7.20;1.00
29353;DHT22;16344;50.364;8.944;2023-12-14T06:13:23;7.20;1.00
29353;DHT22;16344;50.364;8.944;2023-12-14T06:15:48;7.20;1.00
29353;DHT22;16344;50.364;8.944;2023-12-14T06:18:14;7.20;1.00
29353;DHT22;16344;50.364;8.944;2023-12-14T06:20:39;7.30;1.00
29353;DHT22;16344;50.364;8.944;2023-12-14T06:23:06;7.30;1.00
29353;DHT22;16344;50.364;8.944;2023-12-14T06:25:31;7.30;1.00
29353;DHT22;16344;50.364;8.944;2023-12-14T06:27:56;7.40;1.00
29353;DHT22;16344;50.364;8.944;2023-12-14T06:30:22;7.40;1.00
29353;DHT22;16344;50.364;8.944;2023-12-14T06:32:47;7.40;1.00
29353;DHT22;16344;50.364;8.944;2023-12-14T06:35:13;7.40;1.00
29353;DHT22;16344;50.364;8.944;2023-12-14T06:37:38;7.40;1.00
29353;DHT22;16344;50.364;8.944;2023-12-14T06:40:05;7.40;1.00
29353;DHT22;16344;50.364;8.944;2023-12-14T06:42:31;7.40;1.00
29353;DHT22;16344;50.364;8.944;2023-12-14T06:44:57;7.40;1.00
29353;DHT22;16344;50.364;8.944;2023-12-14T06:47:22;7.30;1.00
29353;DHT22;16344;50.364;8.944;2023-12-14T06:49:47;7.40;1.00
29353;DHT22;16344;50.364;8.944;2023-12-14T06:52:13;7.40;1.00
29353;DHT22;16344;50.364;8.944;2023-12-14T06:54:38;7.40;1.00
29353;DHT22;16344;50.364;8.944;2023-12-14T06:57:04;7.40;1.00
29353;DHT22;16344;50.364;8.944;2023-12-14T06:59:29;7.30;1.00
29353;DHT22;16344;50.364;8.944;2023-12-14T07:01:55;7.30;1.00
29353;DHT22;16344;50.364;8.944;2023-12-14T07:04:21;7.30;1.00
29353;DHT22;16344;50.364;8.944;2023-12-14T07:06:52;7.30;1.00
29353;DHT22;16344;50.364;8.944;2023-12-14T07:09:18;7.30;1.00
29353;DHT22;16344;50.364;8.944;2023-12-14T07:11:44;7.30;1.00
29353;DHT22;16344;50.364;8.944;2023-12-14T07:14:09;7.30;1.00
29353;DHT22;16344;50.364;8.944;2023-12-14T07:16:35;7.30;1.00
29353;DHT22;16344;50.364;8.944;2023-12-14T07:19:01;7.30;1.00
29353;DHT22;16344;50.364;8.944;2023-12-14T07:21:26;7.30;1.00
29353;DHT22;16344;50.364;8.944;2023-12-14T07:23:52;7.30;1.00
29353;DHT22;16344;50.364;8.944;2023-12-14T07:26:17;7.40;1.00
29353;DHT22;16344;50.364;8.944;2023-12-14T07:28:43;7.40;1.00
29353;DHT22;16344;50.364;8.944;2023-12-14T07:31:08;7.30;1.00
29353;DHT22;16344;50.364;8.944;2023-12-14T07:33:34;7.30;1.00
29353;DHT22;16344;50.364;8.944;2023-12-14T07:36:01;7.30;1.00
29353;DHT22;16344;50.364;8.944;2023-12-14T07:38:26;7.30;1.00
29353;DHT22;16344;50.364;8.944;2023-12-14T07:40:51;7.30;1.00
29353;DHT22;16344;50.364;8.944;2023-12-14T07:43:17;7.40;1.00
29353;DHT22;16344;50.364;8.944;2023-12-14T07:45:43;7.30;1.00
29353;DHT22;16344;50.364;8.944;2023-12-14T07:48:09;7.40;1.00
29353;DHT22;16344;50.364;8.944;2023-12-14T07:50:34;7.40;1.00
29353;DHT22;16344;50.364;8.944;2023-12-14T07:53:00;7.40;1.00
29353;DHT22;16344;50.364;8.944;2023-12-14T07:55:25;7.40;1.00
29353;DHT22;16344;50.364;8.944;2023-12-14T07:57:51;7.40;1.00
29353;DHT22;16344;50.364;8.944;2023-12-14T08:00:16;7.50;1.00
29353;DHT22;16344;50.364;8.944;2023-12-14T08:02:42;7.40;1.00
29353;DHT22;16344;50.364;8.944;2023-12-14T08:05:07;7.30;1.00
29353;DHT22;16344;50.364;8.944;2023-12-14T08:07:34;7.40;1.00
29353;DHT22;16344;50.364;8.944;2023-12-14T08:10:00;7.30;1.00
29353;DHT22;16344;50.364;8.944;2023-12-14T08:12:25;7.40;1.00
29353;DHT22;16344;50.364;8.944;2023-12-14T08:14:51;7.40;1.00
29353;DHT22;16344;50.364;8.944;2023-12-14T08:17:16;7.40;1.00
29353;DHT22;16344;50.364;8.944;2023-12-14T08:19:42;7.50;1.00
29353;DHT22;16344;50.364;8.944;2023-12-14T08:22:08;7.50;1.00
29353;DHT22;16344;50.364;8.944;2023-12-14T08:24:39;7.50;1.00
29353;DHT22;16344;50.364;8.944;2023-12-14T08:27:04;7.50;1.00
29353;DHT22;16344;50.364;8.944;2023-12-14T08:29:30;7.50;1.00
29353;DHT22;16344;50.364;8.944;2023-12-14T08:31:55;7.50;1.00
29353;DHT22;16344;50.364;8.944;2023-12-14T08:34:23;7.50;1.00
29353;DHT22;16344;50.364;8.944;2023-12-14T08:36:48;7.50;1.00
29353;DHT22;16344;50.364;8.944;2023-12-14T08:39:14;7.40;1.00
29353;DHT22;16344;50.364;8.944;2023-12-14T08:41:39;7.40;1.00
29353;DHT22;16344;50.364;8.944;2023-12-14T08:44:06;7.40;1.00
29353;DHT22;16344;50.364;8.944;2023-12-14T08:46:38;7.40;1.00
29353;DHT22;16344;50.364;8.944;2023-12-14T08:49:03;7.40;1.00
29353;DHT22;16344;50.364;8.944;2023-12-14T08:51:29;7.40;1.00
29353;DHT22;16344;50.364;8.944;2023-12-14T08:53:55;7.50;1.00
29353;DHT22;16344;50.364;8.944;2023-12-14T08:56:20;7.50;1.00
29353;DHT22;16344;50.364;8.944;2023-12-14T08:58:46;7.50;1.00
29353;DHT22;16344;50.364;8.944;2023-12-14T09:01:11;7.60;1.00
29353;DHT22;16344;50.364;8.944;2023-12-14T09:03:37;7.50;1.00
29353;DHT22;16344;50.364;8.944;2023-12-14T09:06:02;7.50;1.00
29353;DHT22;16344;50.364;8.944;2023-12-14T09:08:30;7.50;1.00
29353;DHT22;16344;50.364;8.944;2023-12-14T09:10:56;7.50;1.00
29353;DHT22;16344;50.364;8.944;2023-12-14T09:13:21;7.50;1.00
29353;DHT22;16344;50.364;8.944;2023-12-14T09:15:46;7.50;1.00
29353;DHT22;16344;50.364;8.944;2023-12-14T09:18:12;7.50;1.00
29353;DHT22;16344;50.364;8.944;2023-12-14T09:20:37;7.50;1.00
29353;DHT22;16344;50.364;8.944;2023-12-14T09:23:05;7.50;1.00
29353;DHT22;16344;50.364;8.944;2023-12-14T09:25:30;7.40;1.00
29353;DHT22;16344;50.364;8.944;2023-12-14T09:27:56;7.40;1.00
29353;DHT22;16344;50.364;8.944;2023-12-14T09:30:21;7.40;1.00
29353;DHT22;16344;50.364;8.944;2023-12-14T09:32:47;7.40;1.00
29353;DHT22;16344;50.364;8.944;2023-12-14T09:35:12;7.40;1.00
29353;DHT22;16344;50.364;8.944;2023-12-14T09:37:38;7.40;1.00
29353;DHT22;16344;50.364;8.944;2023-12-14T09:40:03;7.30;1.00
29353;DHT22;16344;50.364;8.944;2023-12-14T09:42:29;7.40;1.00
29353;DHT22;16344;50.364;8.944;2023-12-14T09:45:01;7.30;1.00
29353;DHT22;16344;50.364;8.944;2023-12-14T09:47:27;7.30;1.00
29353;DHT22;16344;50.364;8.944;2023-12-14T09:49:52;7.30;1.00
29353;DHT22;16344;50.364;8.944;2023-12-14T09:52:18;7.40;1.00
29353;DHT22;16344;50.364;8.944;2023-12-14T09:54:43;7.30;1.00
29353;DHT22;16344;50.364;8.944;2023-12-14T09:57:09;7.30;1.00
29353;DHT22;16344;50.364;8.944;2023-12-14T09:59:34;7.20;1.00
29353;DHT22;16344;50.364;8.944;2023-12-14T10:02:12;7.10;1.00
29353;DHT22;16344;50.364;8.944;2023-12-14T10:04:38;7.20;1.00
29353;DHT22;16344;50.364;8.944;2023-12-14T10:07:03;7.10;1.00
29353;DHT22;16344;50.364;8.944;2023-12-14T10:09:35;7.10;1.00
29353;DHT22;16344;50.364;8.944;2023-12-14T10:14:30;7.10;1.00
29353;DHT22;16344;50.364;8.944;2023-12-14T10:16:56;7.10;1.00
29353;DHT22;16344;50.364;8.944;2023-12-14T10:19:21;7.10;1.00
29353;DHT22;16344;50.364;8.944;2023-12-14T10:21:47;7.10;1.00
29353;DHT22;16344;50.364;8.944;2023-12-14T10:24:13;7.10;1.00
29353;DHT22;16344;50.364;8.944;2023-12-14T10:26:39;7.10;1.00
29353;DHT22;16344;50.364;8.944;2023-12-14T10:29:06;7.10;1.00
29353;DHT22;16344;50.364;8.944;2023-12-14T10:31:31;7.10;1.00
29353;DHT22;16344;50.364;8.944;2023-12-14T10:33:57;7.10;1.00
29353;DHT22;16344;50.364;8.944;2023-12-14T10:36:24;7.10;1.00
29353;DHT22;16344;50.364;8.944;2023-12-14T10:38:53;7.10;1.00
29353;DHT22;16344;50.364;8.944;2023-12-14T10:41:22;7.10;1.00
29353;DHT22;16344;50.364;8.944;2023-12-14T10:43:48;7.10;1.00
29353;DHT22;16344;50.364;8.944;2023-12-14T10:46:14;7.10;1.00
29353;DHT22;16344;50.364;8.944;2023-12-14T10:48:40;7.10;1.00
29353;DHT22;16344;50.364;8.944;2023-12-14T10:51:09;7.20;1.00
29353;DHT22;16344;50.364;8.944;2023-12-14T10:53:35;7.20;1.00
29353;DHT22;16344;50.364;8.944;2023-12-14T10:56:01;7.30;1.00
29353;DHT22;16344;50.364;8.944;2023-12-14T10:58:34;7.30;1.00
29353;DHT22;16344;50.364;8.944;2023-12-14T11:01:11;7.30;1.00
29353;DHT22;16344;50.364;8.944;2023-12-14T11:03:39;7.30;1.00
29353;DHT22;16344;50.364;8.944;2023-12-14T11:06:15;7.50;1.00
29353;DHT22;16344;50.364;8.944;2023-12-14T11:08:45;7.60;1.00
29353;DHT22;16344;50.364;8.944;2023-12-14T11:11:10;7.80;1.00
29353;DHT22;16344;50.364;8.944;2023-12-14T11:13:37;7.80;1.00
29353;DHT22;16344;50.364;8.944;2023-12-14T11:16:04;7.80;1.00
29353;DHT22;16344;50.364;8.944;2023-12-14T11:18:30;7.90;1.00
29353;DHT22;16344;50.364;8.944;2023-12-14T11:20:57;7.90;1.00
29353;DHT22;16344;50.364;8.944;2023-12-14T11:25:53;8.10;1.00
29353;DHT22;16344;50.364;8.944;2023-12-14T11:28:19;8.00;1.00
29353;DHT22;16344;50.364;8.944;2023-12-14T11:30:45;8.00;1.00
29353;DHT22;16344;50.364;8.944;2023-12-14T11:33:11;8.10;1.00
29353;DHT22;16344;50.364;8.944;2023-12-14T11:35:37;8.20;1.00
29353;DHT22;16344;50.364;8.944;2023-12-14T11:38:02;8.20;1.00
29353;DHT22;16344;50.364;8.944;2023-12-14T11:40:35;8.30;1.00
29353;DHT22;16344;50.364;8.944;2023-12-14T11:43:01;8.30;1.00
29353;DHT22;16344;50.364;8.944;2023-12-14T11:45:28;8.30;1.00
29353;DHT22;16344;50.364;8.944;2023-12-14T11:47:53;8.30;1.00
29353;DHT22;16344;50.364;8.944;2023-12-14T11:50:19;8.30;1.00
29353;DHT22;16344;50.364;8.944;2023-12-14T11:52:45;8.40;1.00
29353;DHT22;16344;50.364;8.944;2023-12-14T11:55:11;8.40;1.00
29353;DHT22;16344;50.364;8.944;2023-12-14T11:57:36;8.50;1.00
29353;DHT22;16344;50.364;8.944;2023-12-14T12:00:02;8.40;1.00
29353;DHT22;16344;50.364;8.944;2023-12-14T12:02:28;8.40;1.00
29353;DHT22;16344;50.364;8.944;2023-12-14T12:04:54;8.40;1.00
29353;DHT22;16344;50.364;8.944;2023-12-14T12:07:19;8.40;1.00
29353;DHT22;16344;50.364;8.944;2023-12-14T12:09:45;8.40;1.00
29353;DHT22;16344;50.364;8.944;2023-12-14T12:12:10;8.40;1.00
29353;DHT22;16344;50.364;8.944;2023-12-14T12:14:37;8.30;1.00
29353;DHT22;16344;50.364;8.944;2023-12-14T12:17:03;8.30;1.00
29353;DHT22;16344;50.364;8.944;2023-12-14T12:19:30;8.30;1.00
29353;DHT22;16344;50.364;8.944;2023-12-14T12:21:56;8.40;1.00
29353;DHT22;16344;50.364;8.944;2023-12-14T12:24:21;8.30;1.00
29353;DHT22;16344;50.364;8.944;2023-12-14T12:26:47;8.20;1.00
29353;DHT22;16344;50.364;8.944;2023-12-14T12:29:12;8.20;1.00
29353;DHT22;16344;50.364;8.944;2023-12-14T12:31:38;8.10;1.00
29353;DHT22;16344;50.364;8.944;2023-12-14T12:34:05;8.00;1.00
29353;DHT22;16344;50.364;8.944;2023-12-14T12:36:30;7.90;1.00
29353;DHT22;16344;50.364;8.944;2023-12-14T12:38:55;8.00;1.00
29353;DHT22;16344;50.364;8.944;2023-12-14T12:41:21;8.00;1.00
29353;DHT22;16344;50.364;8.944;2023-12-14T12:43:46;8.10;1.00
29353;DHT22;16344;50.364;8.944;2023-12-14T12:46:12;8.00;1.00
29353;DHT22;16344;50.364;8.944;2023-12-14T12:48:37;8.10;1.00
29353;DHT22;16344;50.364;8.944;2023-12-14T12:51:03;8.10;1.00
29353;DHT22;16344;50.364;8.944;2023-12-14T12:53:28;8.10;1.00
29353;DHT22;16344;50.364;8.944;2023-12-14T12:55:54;8.10;1.00
29353;DHT22;16344;50.364;8.944;2023-12-14T12:58:19;8.10;1.00
29353;DHT22;16344;50.364;8.944;2023-12-14T13:00:45;8.10;1.00
29353;DHT22;16344;50.364;8.944;2023-12-14T13:03:10;8.20;1.00
29353;DHT22;16344;50.364;8.944;2023-12-14T13:05:36;8.10;1.00
29353;DHT22;16344;50.364;8.944;2023-12-14T13:08:01;8.10;1.00
29353;DHT22;16344;50.364;8.944;2023-12-14T13:10:27;8.10;1.00
29353;DHT22;16344;50.364;8.944;2023-12-14T13:12:52;8.10;1.00
29353;DHT22;16344;50.364;8.944;2023-12-14T13:15:18;8.10;1.00
29353;DHT22;16344;50.364;8.944;2023-12-14T13:17:48;8.10;1.00
29353;DHT22;16344;50.364;8.944;2023-12-14T13:20:14;8.00;1.00
29353;DHT22;16344;50.364;8.944;2023-12-14T13:22:39;8.10;1.00
29353;DHT22;16344;50.364;8.944;2023-12-14T13:25:05;8.00;1.00
29353;DHT22;16344;50.364;8.944;2023-12-14T13:27:30;7.90;1.00
29353;DHT22;16344;50.364;8.944;2023-12-14T13:29:57;7.90;1.00
29353;DHT22;16344;50.364;8.944;2023-12-14T13:32:22;7.90;1.00
29353;DHT22;16344;50.364;8.944;2023-12-14T13:34:47;7.80;1.00
29353;DHT22;16344;50.364;8.944;2023-12-14T13:37:13;7.90;1.00
29353;DHT22;16344;50.364;8.944;2023-12-14T13:39:39;7.90;1.00
29353;DHT22;16344;50.364;8.944;2023-12-14T13:42:05;8.00;1.00
29353;DHT22;16344;50.364;8.944;2023-12-14T13:44:32;8.00;1.00
29353;DHT22;16344;50.364;8.944;2023-12-14T13:46:57;8.00;1.00
29353;DHT22;16344;50.364;8.944;2023-12-14T13:49:22;8.00;1.00
29353;DHT22;16344;50.364;8.944;2023-12-14T13:51:48;7.90;1.00
29353;DHT22;16344;50.364;8.944;2023-12-14T13:54:13;7.90;1.00
29353;DHT22;16344;50.364;8.944;2023-12-14T13:56:39;7.90;1.00
29353;DHT22;16344;50.364;8.944;2023-12-14T13:59:04;7.90;1.00
29353;DHT22;16344;50.364;8.944;2023-12-14T14:01:30;7.90;1.00
29353;DHT22;16344;50.364;8.944;2023-12-14T14:03:55;7.80;1.00
29353;DHT22;16344;50.364;8.944;2023-12-14T14:06:21;7.90;1.00
29353;DHT22;16344;50.364;8.944;2023-12-14T14:08:48;7.80;1.00
29353;DHT22;16344;50.364;8.944;2023-12-14T14:11:14;7.80;1.00
29353;DHT22;16344;50.364;8.944;2023-12-14T14:13:39;7.80;1.00
29353;DHT22;16344;50.364;8.944;2023-12-14T14:16:06;7.80;1.00
29353;DHT22;16344;50.364;8.944;2023-12-14T14:18:31;7.80;1.00
29353;DHT22;16344;50.364;8.944;2023-12-14T14:20:57;7.70;1.00
29353;DHT22;16344;50.364;8.944;2023-12-14T14:23:24;7.70;1.00
29353;DHT22;16344;50.364;8.944;2023-12-14T14:25:50;7.70;1.00
29353;DHT22;16344;50.364;8.944;2023-12-14T14:28:19;7.70;1.00
29353;DHT22;16344;50.364;8.944;2023-12-14T14:30:45;7.80;1.00
29353;DHT22;16344;50.364;8.944;2023-12-14T14:33:10;7.80;1.00
29353;DHT22;16344;50.364;8.944;2023-12-14T14:35:36;7.80;1.00
29353;DHT22;16344;50.364;8.944;2023-12-14T14:38:02;7.80;1.00
29353;DHT22;16344;50.364;8.944;2023-12-14T14:40:27;7.70;1.00
29353;DHT22;16344;50.364;8.944;2023-12-14T14:42:53;7.70;1.00
29353;DHT22;16344;50.364;8.944;2023-12-14T14:45:18;7.80;1.00
29353;DHT22;16344;50.364;8.944;2023-12-14T14:47:44;8.00;1.00
29353;DHT22;16344;50.364;8.944;2023-12-14T14:50:10;8.10;1.00
29353;DHT22;16344;50.364;8.944;2023-12-14T14:52:36;8.20;1.00
29353;DHT22;16344;50.364;8.944;2023-12-14T14:55:01;8.40;1.00
29353;DHT22;16344;50.364;8.944;2023-12-14T14:57:27;8.50;1.00
29353;DHT22;16344;50.364;8.944;2023-12-14T14:59:52;8.50;1.00
29353;DHT22;16344;50.364;8.944;2023-12-14T15:02:18;8.50;1.00
29353;DHT22;16344;50.364;8.944;2023-12-14T15:04:43;8.50;1.00
29353;DHT22;16344;50.364;8.944;2023-12-14T15:07:09;8.40;1.00
29353;DHT22;16344;50.364;8.944;2023-12-14T15:09:34;8.40;1.00
29353;DHT22;16344;50.364;8.944;2023-12-14T15:12:00;8.30;1.00
29353;DHT22;16344;50.364;8.944;2023-12-14T15:14:25;8.30;1.00
29353;DHT22;16344;50.364;8.944;2023-12-14T15:16:53;8.30;1.00
29353;DHT22;16344;50.364;8.944;2023-12-14T15:19:18;8.40;1.00
29353;DHT22;16344;50.364;8.944;2023-12-14T15:21:44;8.40;1.00
29353;DHT22;16344;50.364;8.944;2023-12-14T15:24:10;8.30;1.00
29353;DHT22;16344;50.364;8.944;2023-12-14T15:26:35;8.40;1.00
29353;DHT22;16344;50.364;8.944;2023-12-14T15:29:00;8.40;1.00
29353;DHT22;16344;50.364;8.944;2023-12-14T15:31:26;8.40;1.00
29353;DHT22;16344;50.364;8.944;2023-12-14T15:33:51;8.40;1.00
29353;DHT22;16344;50.364;8.944;2023-12-14T15:36:17;8.30;1.00
29353;DHT22;16344;50.364;8.944;2023-12-14T15:38:42;8.20;1.00
29353;DHT22;16344;50.364;8.944;2023-12-14T15:41:11;8.10;1.00
29353;DHT22;16344;50.364;8.944;2023-12-14T15:43:37;8.00;1.00
29353;DHT22;16344;50.364;8.944;2023-12-14T15:46:03;7.90;1.00
29353;DHT22;16344;50.364;8.944;2023-12-14T15:48:28;7.80;1.00
29353;DHT22;16344;50.364;8.944;2023-12-14T15:50:54;7.70;1.00
29353;DHT22;16344;50.364;8.944;2023-12-14T15:53:19;7.60;1.00
29353;DHT22;16344;50.364;8.944;2023-12-14T15:55:44;7.50;1.00
29353;DHT22;16344;50.364;8.944;2023-12-14T15:58:10;7.40;1.00